sensor_id;sensor_type;location;lat;lon;timestamp;pressure;altitude;pressure_sealevel;temperature;humidity
59194;BME280;44967;48.598;15.650;2023-07-30T00:01:57;97791.22;;;21.47;64.58
59194;BME280;44967;48.598;15.650;2023-07-30T00:04:23;97784.75;;;21.49;64.71
59194;BME280;44967;48.598;15.650;2023-07-30T00:06:49;97788.44;;;21.48;64.92
59194;BME280;44967;48.598;15.650;2023-07-30T00:09:14;97781.59;;;21.44;64.69
59194;BME280;44967;48.598;15.650;2023-07-30T00:11:40;97775.00;;;21.48;64.30
59194;BME280;44967;48.598;15.650;2023-07-30T00:14:05;97774.50;;;21.43;64.63
59194;BME280;44967;48.598;15.650;2023-07-30T00:16:31;97773.56;;;21.33;65.21
59194;BME280;44967;48.598;15.650;2023-07-30T00:18:57;97767.66;;;21.39;64.70
59194;BME280;44967;48.598;15.650;2023-07-30T00:21:22;97765.25;;;21.36;64.44
59194;BME280;44967;48.598;15.650;2023-07-30T00:23:48;97766.22;;;21.35;64.26
59194;BME280;44967;48.598;15.650;2023-07-30T00:26:14;97750.59;;;21.29;64.59
59194;BME280;44967;48.598;15.650;2023-07-30T00:28:40;97754.53;;;21.25;64.79
59194;BME280;44967;48.598;15.650;2023-07-30T00:31:06;97754.63;;;21.24;64.62
59194;BME280;44967;48.598;15.650;2023-07-30T00:33:31;97758.19;;;21.24;65.03
59194;BME280;44967;48.598;15.650;2023-07-30T00:35:57;97754.63;;;21.24;65.82
59194;BME280;44967;48.598;15.650;2023-07-30T00:38:23;97754.16;;;21.19;65.52
59194;BME280;44967;48.598;15.650;2023-07-30T00:40:49;97753.28;;;21.18;65.64
59194;BME280;44967;48.598;15.650;2023-07-30T00:43:14;97752.22;;;21.21;65.15
59194;BME280;44967;48.598;15.650;2023-07-30T00:45:43;97750.72;;;21.28;64.37
59194;BME280;44967;48.598;15.650;2023-07-30T00:48:10;97753.91;;;21.22;65.15
59194;BME280;44967;48.598;15.650;2023-07-30T00:50:38;97744.78;;;21.13;65.59
59194;BME280;44967;48.598;15.650;2023-07-30T00:53:04;97741.31;;;21.11;65.43
59194;BME280;44967;48.598;15.650;2023-07-30T00:55:30;97746.25;;;21.17;64.66
59194;BME280;44967;48.598;15.650;2023-07-30T00:57:57;97751.22;;;21.10;65.44
59194;BME280;44967;48.598;15.650;2023-07-30T01:00:23;97749.75;;;21.06;65.59
59194;BME280;44967;48.598;15.650;2023-07-30T01:02:51;97745.59;;;21.02;66.19
59194;BME280;44967;48.598;15.650;2023-07-30T01:05:17;97744.13;;;20.98;66.28
59194;BME280;44967;48.598;15.650;2023-07-30T01:07:42;97746.22;;;20.95;66.31
59194;BME280;44967;48.598;15.650;2023-07-30T01:10:08;97749.53;;;20.87;66.59
59194;BME280;44967;48.598;15.650;2023-07-30T01:12:35;97743.81;;;20.81;67.18
59194;BME280;44967;48.598;15.650;2023-07-30T01:15:01;97748.22;;;20.82;67.39
59194;BME280;44967;48.598;15.650;2023-07-30T01:17:27;97758.72;;;20.85;67.02
59194;BME280;44967;48.598;15.650;2023-07-30T01:19:53;97754.66;;;20.79;67.41
59194;BME280;44967;48.598;15.650;2023-07-30T01:22:22;97757.34;;;20.79;67.94
59194;BME280;44967;48.598;15.650;2023-07-30T01:24:49;97766.03;;;20.72;68.38
59194;BME280;44967;48.598;15.650;2023-07-30T01:27:28;97767.13;;;20.69;68.08
59194;BME280;44967;48.598;15.650;2023-07-30T01:32:37;97762.47;;;20.60;68.98
59194;BME280;44967;48.598;15.650;2023-07-30T01:35:07;97762.75;;;20.57;70.07
59194;BME280;44967;48.598;15.650;2023-07-30T01:37:33;97764.66;;;20.55;69.86
59194;BME280;44967;48.598;15.650;2023-07-30T01:39:59;97765.16;;;20.49;70.33
59194;BME280;44967;48.598;15.650;2023-07-30T01:42:31;97760.91;;;20.46;70.24
59194;BME280;44967;48.598;15.650;2023-07-30T01:44:57;97760.16;;;20.33;70.50
59194;BME280;44967;48.598;15.650;2023-07-30T01:47:23;97764.47;;;20.23;70.87
59194;BME280;44967;48.598;15.650;2023-07-30T01:49:48;97771.91;;;20.19;71.01
59194;BME280;44967;48.598;15.650;2023-07-30T01:52:15;97765.22;;;20.14;71.14
59194;BME280;44967;48.598;15.650;2023-07-30T01:54:40;97758.13;;;20.13;71.00
59194;BME280;44967;48.598;15.650;2023-07-30T01:57:07;97763.50;;;20.13;71.18
59194;BME280;44967;48.598;15.650;2023-07-30T01:59:33;97764.72;;;20.09;71.33
59194;BME280;44967;48.598;15.650;2023-07-30T02:01:58;97762.75;;;20.11;71.92
59194;BME280;44967;48.598;15.650;2023-07-30T02:04:24;97764.47;;;20.12;71.74
59194;BME280;44967;48.598;15.650;2023-07-30T02:06:50;97771.03;;;20.08;71.79
59194;BME280;44967;48.598;15.650;2023-07-30T02:09:15;97762.25;;;20.06;71.73
59194;BME280;44967;48.598;15.650;2023-07-30T02:11:41;97766.16;;;20.02;72.39
59194;BME280;44967;48.598;15.650;2023-07-30T02:14:09;97758.56;;;19.96;71.88
59194;BME280;44967;48.598;15.650;2023-07-30T02:16:34;97758.47;;;19.97;72.03
59194;BME280;44967;48.598;15.650;2023-07-30T02:19:00;97759.06;;;20.01;72.09
59194;BME280;44967;48.598;15.650;2023-07-30T02:21:25;97756.13;;;19.93;72.32
59194;BME280;44967;48.598;15.650;2023-07-30T02:23:51;97756.97;;;19.93;72.08
59194;BME280;44967;48.598;15.650;2023-07-30T02:26:17;97759.97;;;19.77;72.44
59194;BME280;44967;48.598;15.650;2023-07-30T02:28:42;97756.69;;;19.74;73.00
59194;BME280;44967;48.598;15.650;2023-07-30T02:31:08;97765.31;;;19.66;72.34
59194;BME280;44967;48.598;15.650;2023-07-30T02:33:34;97755.06;;;19.71;73.06
59194;BME280;44967;48.598;15.650;2023-07-30T02:36:00;97755.31;;;19.68;73.63
59194;BME280;44967;48.598;15.650;2023-07-30T02:38:26;97763.81;;;19.62;74.14
59194;BME280;44967;48.598;15.650;2023-07-30T02:40:51;97761.16;;;19.62;74.87
59194;BME280;44967;48.598;15.650;2023-07-30T02:43:17;97756.38;;;19.55;75.07
59194;BME280;44967;48.598;15.650;2023-07-30T02:45:42;97755.09;;;19.48;75.26
59194;BME280;44967;48.598;15.650;2023-07-30T02:48:08;97755.63;;;19.40;75.57
59194;BME280;44967;48.598;15.650;2023-07-30T02:50:34;97753.19;;;19.37;75.74
59194;BME280;44967;48.598;15.650;2023-07-30T02:52:59;97755.53;;;19.42;75.43
59194;BME280;44967;48.598;15.650;2023-07-30T02:55:25;97758.44;;;19.39;75.01
59194;BME280;44967;48.598;15.650;2023-07-30T02:57:50;97755.75;;;19.39;75.14
59194;BME280;44967;48.598;15.650;2023-07-30T03:00:16;97754.66;;;19.41;75.25
59194;BME280;44967;48.598;15.650;2023-07-30T03:02:42;97762.94;;;19.38;75.51
59194;BME280;44967;48.598;15.650;2023-07-30T03:05:08;97760.25;;;19.38;75.36
59194;BME280;44967;48.598;15.650;2023-07-30T03:07:34;97758.69;;;19.36;75.60
59194;BME280;44967;48.598;15.650;2023-07-30T03:09:59;97753.38;;;19.23;76.34
59194;BME280;44967;48.598;15.650;2023-07-30T03:12:25;97752.84;;;19.18;75.72
59194;BME280;44967;48.598;15.650;2023-07-30T03:14:51;97750.09;;;19.07;76.15
59194;BME280;44967;48.598;15.650;2023-07-30T03:17:16;97754.19;;;19.00;76.42
59194;BME280;44967;48.598;15.650;2023-07-30T03:19:42;97763.19;;;18.99;76.28
59194;BME280;44967;48.598;15.650;2023-07-30T03:22:07;97753.34;;;18.99;76.75
59194;BME280;44967;48.598;15.650;2023-07-30T03:24:33;97751.72;;;18.97;76.61
59194;BME280;44967;48.598;15.650;2023-07-30T03:26:59;97750.75;;;18.98;76.44
59194;BME280;44967;48.598;15.650;2023-07-30T03:29:24;97749.94;;;18.84;77.43
59194;BME280;44967;48.598;15.650;2023-07-30T03:31:50;97754.22;;;18.87;77.20
59194;BME280;44967;48.598;15.650;2023-07-30T03:34:15;97756.06;;;18.87;77.10
59194;BME280;44967;48.598;15.650;2023-07-30T03:36:41;97751.88;;;18.82;77.30
59194;BME280;44967;48.598;15.650;2023-07-30T03:39:07;97753.16;;;18.77;77.37
59194;BME280;44967;48.598;15.650;2023-07-30T03:41:33;97751.56;;;18.74;77.44
59194;BME280;44967;48.598;15.650;2023-07-30T03:43:58;97755.13;;;18.75;77.78
59194;BME280;44967;48.598;15.650;2023-07-30T03:46:24;97752.22;;;18.65;78.41
59194;BME280;44967;48.598;15.650;2023-07-30T03:48:49;97759.06;;;18.69;78.33
59194;BME280;44967;48.598;15.650;2023-07-30T03:51:15;97756.19;;;18.72;78.59
59194;BME280;44967;48.598;15.650;2023-07-30T03:53:41;97745.50;;;18.72;78.35
59194;BME280;44967;48.598;15.650;2023-07-30T03:56:08;97753.72;;;18.69;78.53
59194;BME280;44967;48.598;15.650;2023-07-30T03:58:33;97753.31;;;18.75;77.90
59194;BME280;44967;48.598;15.650;2023-07-30T04:00:59;97750.84;;;18.72;77.76
59194;BME280;44967;48.598;15.650;2023-07-30T04:03:25;97745.38;;;18.74;77.82
59194;BME280;44967;48.598;15.650;2023-07-30T04:05:50;97755.53;;;18.81;77.80
59194;BME280;44967;48.598;15.650;2023-07-30T04:08:16;97761.34;;;18.75;77.79
59194;BME280;44967;48.598;15.650;2023-07-30T04:10:42;97763.25;;;18.73;77.97
59194;BME280;44967;48.598;15.650;2023-07-30T04:13:07;97756.84;;;18.76;78.14
59194;BME280;44967;48.598;15.650;2023-07-30T04:15:33;97746.94;;;18.76;77.92
59194;BME280;44967;48.598;15.650;2023-07-30T04:17:59;97745.66;;;18.82;78.08
59194;BME280;44967;48.598;15.650;2023-07-30T04:20:25;97736.91;;;18.80;78.06
59194;BME280;44967;48.598;15.650;2023-07-30T04:22:51;97745.66;;;18.82;78.00
59194;BME280;44967;48.598;15.650;2023-07-30T04:25:17;97748.69;;;18.77;78.18
59194;BME280;44967;48.598;15.650;2023-07-30T04:27:43;97758.13;;;18.70;78.51
59194;BME280;44967;48.598;15.650;2023-07-30T04:30:09;97766.06;;;18.72;78.14
59194;BME280;44967;48.598;15.650;2023-07-30T04:32:35;97770.53;;;18.71;78.27
59194;BME280;44967;48.598;15.650;2023-07-30T04:35:01;97779.84;;;18.78;78.72
59194;BME280;44967;48.598;15.650;2023-07-30T04:37:29;97779.63;;;18.81;78.90
59194;BME280;44967;48.598;15.650;2023-07-30T04:39:56;97780.38;;;18.83;79.00
59194;BME280;44967;48.598;15.650;2023-07-30T04:42:22;97775.13;;;18.82;78.54
59194;BME280;44967;48.598;15.650;2023-07-30T04:44:47;97778.66;;;18.82;78.02
59194;BME280;44967;48.598;15.650;2023-07-30T04:47:14;97782.06;;;18.84;78.24
59194;BME280;44967;48.598;15.650;2023-07-30T04:49:39;97791.94;;;18.84;78.02
59194;BME280;44967;48.598;15.650;2023-07-30T04:52:07;97799.00;;;18.85;78.47
59194;BME280;44967;48.598;15.650;2023-07-30T04:54:33;97797.41;;;18.82;77.89
59194;BME280;44967;48.598;15.650;2023-07-30T04:56:59;97794.94;;;18.79;79.22
59194;BME280;44967;48.598;15.650;2023-07-30T04:59:24;97792.47;;;18.76;79.50
59194;BME280;44967;48.598;15.650;2023-07-30T05:01:50;97796.44;;;18.83;79.38
59194;BME280;44967;48.598;15.650;2023-07-30T05:04:16;97808.41;;;18.91;81.15
59194;BME280;44967;48.598;15.650;2023-07-30T05:06:41;97810.00;;;18.93;81.88
59194;BME280;44967;48.598;15.650;2023-07-30T05:09:07;97796.22;;;18.87;82.43
59194;BME280;44967;48.598;15.650;2023-07-30T05:11:32;97806.94;;;18.87;83.16
59194;BME280;44967;48.598;15.650;2023-07-30T05:13:59;97804.47;;;18.83;83.54
59194;BME280;44967;48.598;15.650;2023-07-30T05:16:24;97804.78;;;18.79;84.40
59194;BME280;44967;48.598;15.650;2023-07-30T05:18:50;97815.59;;;18.77;84.91
59194;BME280;44967;48.598;15.650;2023-07-30T05:21:15;97812.50;;;18.58;85.34
59194;BME280;44967;48.598;15.650;2023-07-30T05:23:41;97820.78;;;18.55;86.81
59194;BME280;44967;48.598;15.650;2023-07-30T05:26:07;97813.28;;;18.60;87.02
59194;BME280;44967;48.598;15.650;2023-07-30T05:28:32;97813.81;;;18.53;86.58
59194;BME280;44967;48.598;15.650;2023-07-30T05:30:58;97817.31;;;18.53;87.68
59194;BME280;44967;48.598;15.650;2023-07-30T05:33:24;97825.16;;;18.56;87.94
59194;BME280;44967;48.598;15.650;2023-07-30T05:35:49;97824.00;;;18.60;88.59
59194;BME280;44967;48.598;15.650;2023-07-30T05:38:16;97823.13;;;18.60;88.17
59194;BME280;44967;48.598;15.650;2023-07-30T05:40:41;97826.97;;;18.56;88.54
59194;BME280;44967;48.598;15.650;2023-07-30T05:43:07;97816.56;;;18.51;88.84
59194;BME280;44967;48.598;15.650;2023-07-30T05:45:34;97827.06;;;18.54;89.58
59194;BME280;44967;48.598;15.650;2023-07-30T05:47:59;97826.75;;;18.59;89.90
59194;BME280;44967;48.598;15.650;2023-07-30T05:50:25;97824.72;;;18.62;89.34
59194;BME280;44967;48.598;15.650;2023-07-30T05:52:50;97820.13;;;18.64;89.65
59194;BME280;44967;48.598;15.650;2023-07-30T05:55:16;97827.50;;;18.61;89.90
59194;BME280;44967;48.598;15.650;2023-07-30T05:57:42;97826.13;;;18.55;90.38
59194;BME280;44967;48.598;15.650;2023-07-30T06:00:08;97827.50;;;18.61;90.72
59194;BME280;44967;48.598;15.650;2023-07-30T06:02:33;97834.38;;;18.52;90.33
59194;BME280;44967;48.598;15.650;2023-07-30T06:05:00;97845.81;;;18.54;90.95
59194;BME280;44967;48.598;15.650;2023-07-30T06:07:25;97843.69;;;18.59;90.67
59194;BME280;44967;48.598;15.650;2023-07-30T06:09:51;97851.47;;;18.62;90.61
59194;BME280;44967;48.598;15.650;2023-07-30T06:12:16;97849.56;;;18.64;90.77
59194;BME280;44967;48.598;15.650;2023-07-30T06:14:42;97851.91;;;18.69;90.39
59194;BME280;44967;48.598;15.650;2023-07-30T06:17:08;97854.38;;;18.72;90.83
59194;BME280;44967;48.598;15.650;2023-07-30T06:19:34;97855.75;;;18.77;90.61
59194;BME280;44967;48.598;15.650;2023-07-30T06:21:59;97856.22;;;18.71;90.57
59194;BME280;44967;48.598;15.650;2023-07-30T06:24:25;97863.06;;;18.75;90.87
59194;BME280;44967;48.598;15.650;2023-07-30T06:26:50;97854.72;;;18.67;90.21
59194;BME280;44967;48.598;15.650;2023-07-30T06:29:17;97875.44;;;18.76;90.75
59194;BME280;44967;48.598;15.650;2023-07-30T06:31:42;97876.13;;;18.80;91.34
59194;BME280;44967;48.598;15.650;2023-07-30T06:34:08;97876.84;;;18.82;91.60
59194;BME280;44967;48.598;15.650;2023-07-30T06:36:34;97876.31;;;18.90;91.25
59194;BME280;44967;48.598;15.650;2023-07-30T06:38:59;97880.81;;;18.89;91.06
59194;BME280;44967;48.598;15.650;2023-07-30T06:41:25;97880.16;;;18.98;91.14
59194;BME280;44967;48.598;15.650;2023-07-30T06:43:51;97878.44;;;19.10;89.90
59194;BME280;44967;48.598;15.650;2023-07-30T06:46:17;97874.13;;;19.20;90.09
59194;BME280;44967;48.598;15.650;2023-07-30T06:48:42;97877.09;;;19.28;90.03
59194;BME280;44967;48.598;15.650;2023-07-30T06:51:09;97870.69;;;19.43;89.72
59194;BME280;44967;48.598;15.650;2023-07-30T06:53:36;97872.25;;;19.58;89.70
59194;BME280;44967;48.598;15.650;2023-07-30T06:56:02;97871.84;;;19.75;89.08
59194;BME280;44967;48.598;15.650;2023-07-30T06:58:28;97874.59;;;19.87;88.29
59194;BME280;44967;48.598;15.650;2023-07-30T07:00:54;97876.16;;;19.78;88.48
59194;BME280;44967;48.598;15.650;2023-07-30T07:03:19;97872.66;;;19.89;88.08
59194;BME280;44967;48.598;15.650;2023-07-30T07:05:52;97864.72;;;19.87;87.87
59194;BME280;44967;48.598;15.650;2023-07-30T07:08:18;97877.06;;;19.90;88.55
59194;BME280;44967;48.598;15.650;2023-07-30T07:10:44;97875.00;;;19.93;88.47
59194;BME280;44967;48.598;15.650;2023-07-30T07:13:09;97873.78;;;19.97;88.26
59194;BME280;44967;48.598;15.650;2023-07-30T07:15:35;97872.00;;;20.09;87.87
59194;BME280;44967;48.598;15.650;2023-07-30T07:18:01;97871.66;;;20.13;86.42
59194;BME280;44967;48.598;15.650;2023-07-30T07:20:27;97878.28;;;20.20;85.48
59194;BME280;44967;48.598;15.650;2023-07-30T07:22:52;97881.47;;;20.26;86.27
59194;BME280;44967;48.598;15.650;2023-07-30T07:25:18;97882.66;;;20.34;84.93
59194;BME280;44967;48.598;15.650;2023-07-30T07:27:44;97879.59;;;20.39;83.90
59194;BME280;44967;48.598;15.650;2023-07-30T07:30:10;97871.78;;;20.36;83.55
59194;BME280;44967;48.598;15.650;2023-07-30T07:32:36;97893.25;;;20.36;83.32
59194;BME280;44967;48.598;15.650;2023-07-30T07:35:05;97887.34;;;20.31;84.07
59194;BME280;44967;48.598;15.650;2023-07-30T07:37:32;97886.69;;;20.16;83.72
59194;BME280;44967;48.598;15.650;2023-07-30T07:39:57;97885.81;;;20.15;84.37
59194;BME280;44967;48.598;15.650;2023-07-30T07:42:23;97890.31;;;20.15;85.24
59194;BME280;44967;48.598;15.650;2023-07-30T07:44:49;97891.59;;;20.22;86.08
59194;BME280;44967;48.598;15.650;2023-07-30T07:47:15;97902.78;;;20.16;86.61
59194;BME280;44967;48.598;15.650;2023-07-30T07:49:41;97890.16;;;20.05;87.46
59194;BME280;44967;48.598;15.650;2023-07-30T07:52:07;97890.22;;;19.93;87.58
59194;BME280;44967;48.598;15.650;2023-07-30T07:54:34;97889.38;;;19.92;86.63
59194;BME280;44967;48.598;15.650;2023-07-30T07:57:00;97891.13;;;19.81;86.74
59194;BME280;44967;48.598;15.650;2023-07-30T07:59:25;97887.09;;;19.99;87.26
59194;BME280;44967;48.598;15.650;2023-07-30T08:01:53;97889.06;;;20.08;87.62
59194;BME280;44967;48.598;15.650;2023-07-30T08:04:18;97887.53;;;20.16;86.74
59194;BME280;44967;48.598;15.650;2023-07-30T08:06:47;97888.22;;;20.31;86.90
59194;BME280;44967;48.598;15.650;2023-07-30T08:09:12;97889.09;;;20.43;83.61
59194;BME280;44967;48.598;15.650;2023-07-30T08:11:38;97883.56;;;20.68;83.87
59194;BME280;44967;48.598;15.650;2023-07-30T08:14:04;97882.16;;;21.08;83.44
59194;BME280;44967;48.598;15.650;2023-07-30T08:16:29;97882.28;;;21.18;79.75
59194;BME280;44967;48.598;15.650;2023-07-30T08:18:55;97897.06;;;21.01;80.50
59194;BME280;44967;48.598;15.650;2023-07-30T08:21:21;97887.31;;;21.11;82.11
59194;BME280;44967;48.598;15.650;2023-07-30T08:23:47;97887.63;;;21.07;82.07
59194;BME280;44967;48.598;15.650;2023-07-30T08:26:12;97883.13;;;21.07;81.91
59194;BME280;44967;48.598;15.650;2023-07-30T08:28:38;97886.69;;;21.19;79.19
59194;BME280;44967;48.598;15.650;2023-07-30T08:31:03;97886.28;;;21.68;79.09
59194;BME280;44967;48.598;15.650;2023-07-30T08:33:29;97876.69;;;21.86;77.71
59194;BME280;44967;48.598;15.650;2023-07-30T08:35:55;97877.00;;;22.15;76.98
59194;BME280;44967;48.598;15.650;2023-07-30T08:38:21;97875.34;;;22.03;77.95
59194;BME280;44967;48.598;15.650;2023-07-30T08:40:47;97879.00;;;22.02;78.86
59194;BME280;44967;48.598;15.650;2023-07-30T08:43:13;97880.47;;;22.06;77.99
59194;BME280;44967;48.598;15.650;2023-07-30T08:45:39;97883.38;;;22.14;76.67
59194;BME280;44967;48.598;15.650;2023-07-30T08:48:05;97874.25;;;22.26;76.03
59194;BME280;44967;48.598;15.650;2023-07-30T08:50:30;97862.72;;;22.35;76.42
59194;BME280;44967;48.598;15.650;2023-07-30T08:52:58;97866.44;;;22.65;74.64
59194;BME280;44967;48.598;15.650;2023-07-30T08:55:26;97860.81;;;24.47;69.15
59194;BME280;44967;48.598;15.650;2023-07-30T08:57:52;97858.75;;;24.77;67.07
59194;BME280;44967;48.598;15.650;2023-07-30T09:00:19;97861.09;;;24.15;64.23
59194;BME280;44967;48.598;15.650;2023-07-30T09:02:55;97853.97;;;24.04;68.03
59194;BME280;44967;48.598;15.650;2023-07-30T09:05:23;97855.41;;;24.18;71.28
59194;BME280;44967;48.598;15.650;2023-07-30T09:07:49;97855.03;;;24.98;65.79
59194;BME280;44967;48.598;15.650;2023-07-30T09:10:15;97853.56;;;25.50;63.65
59194;BME280;44967;48.598;15.650;2023-07-30T09:12:41;97859.34;;;25.64;61.35
59194;BME280;44967;48.598;15.650;2023-07-30T09:15:07;97848.03;;;25.14;63.19
59194;BME280;44967;48.598;15.650;2023-07-30T09:17:34;97856.91;;;24.78;63.86
59194;BME280;44967;48.598;15.650;2023-07-30T09:20:00;97847.56;;;24.63;65.28
59194;BME280;44967;48.598;15.650;2023-07-30T09:22:33;97851.41;;;24.03;66.35
59194;BME280;44967;48.598;15.650;2023-07-30T09:25:02;97858.97;;;24.37;67.30
59194;BME280;44967;48.598;15.650;2023-07-30T09:27:28;97847.72;;;24.13;67.74
59194;BME280;44967;48.598;15.650;2023-07-30T09:30:01;97864.38;;;23.50;68.60
59194;BME280;44967;48.598;15.650;2023-07-30T09:32:29;97849.84;;;23.41;68.71
59194;BME280;44967;48.598;15.650;2023-07-30T09:34:55;97856.84;;;24.22;67.87
59194;BME280;44967;48.598;15.650;2023-07-30T09:37:21;97853.34;;;24.77;65.96
59194;BME280;44967;48.598;15.650;2023-07-30T09:39:50;97857.03;;;25.69;60.94
59194;BME280;44967;48.598;15.650;2023-07-30T09:42:15;97847.97;;;26.41;58.17
59194;BME280;44967;48.598;15.650;2023-07-30T09:44:41;97842.81;;;26.30;58.30
59194;BME280;44967;48.598;15.650;2023-07-30T09:47:10;97856.63;;;26.09;60.01
59194;BME280;44967;48.598;15.650;2023-07-30T09:49:37;97856.72;;;26.17;60.31
59194;BME280;44967;48.598;15.650;2023-07-30T09:52:04;97848.00;;;25.78;61.97
59194;BME280;44967;48.598;15.650;2023-07-30T09:54:31;97850.44;;;25.99;60.19
59194;BME280;44967;48.598;15.650;2023-07-30T09:56:58;97855.72;;;25.73;60.04
59194;BME280;44967;48.598;15.650;2023-07-30T09:59:24;97863.09;;;25.17;60.24
59194;BME280;44967;48.598;15.650;2023-07-30T10:01:50;97857.09;;;24.76;60.51
59194;BME280;44967;48.598;15.650;2023-07-30T10:04:22;97862.38;;;24.30;63.32
59194;BME280;44967;48.598;15.650;2023-07-30T10:07:03;97870.16;;;24.04;64.83
59194;BME280;44967;48.598;15.650;2023-07-30T10:09:37;97882.03;;;23.33;65.14
59194;BME280;44967;48.598;15.650;2023-07-30T10:12:13;97885.75;;;22.28;68.92
59194;BME280;44967;48.598;15.650;2023-07-30T10:14:41;97887.47;;;22.29;71.03
59194;BME280;44967;48.598;15.650;2023-07-30T10:17:09;97883.91;;;21.97;73.15
59194;BME280;44967;48.598;15.650;2023-07-30T10:19:35;97880.19;;;21.55;72.69
59194;BME280;44967;48.598;15.650;2023-07-30T10:22:22;97873.34;;;21.51;73.61
59194;BME280;44967;48.598;15.650;2023-07-30T10:25:03;97880.59;;;21.39;72.78
59194;BME280;44967;48.598;15.650;2023-07-30T10:27:38;97867.47;;;21.57;73.10
59194;BME280;44967;48.598;15.650;2023-07-30T10:30:14;97879.19;;;21.67;72.44
59194;BME280;44967;48.598;15.650;2023-07-30T10:35:44;97865.34;;;22.88;68.38
59194;BME280;44967;48.598;15.650;2023-07-30T10:41:01;97864.44;;;23.78;66.22
59194;BME280;44967;48.598;15.650;2023-07-30T10:43:34;97865.47;;;23.97;62.49
59194;BME280;44967;48.598;15.650;2023-07-30T10:46:01;97867.91;;;24.09;60.23
59194;BME280;44967;48.598;15.650;2023-07-30T10:48:37;97870.78;;;24.27;60.96
59194;BME280;44967;48.598;15.650;2023-07-30T10:51:06;97865.22;;;24.57;60.30
59194;BME280;44967;48.598;15.650;2023-07-30T10:53:32;97862.91;;;24.72;56.81
59194;BME280;44967;48.598;15.650;2023-07-30T10:56:03;97867.56;;;24.99;56.97
59194;BME280;44967;48.598;15.650;2023-07-30T10:58:32;97852.84;;;25.20;55.72
59194;BME280;44967;48.598;15.650;2023-07-30T11:01:01;97852.66;;;25.31;56.31
59194;BME280;44967;48.598;15.650;2023-07-30T11:03:27;97852.75;;;25.40;54.39
59194;BME280;44967;48.598;15.650;2023-07-30T11:05:54;97845.09;;;25.35;53.74
59194;BME280;44967;48.598;15.650;2023-07-30T11:08:36;97843.09;;;25.64;54.42
59194;BME280;44967;48.598;15.650;2023-07-30T11:11:05;97844.50;;;25.68;53.24
59194;BME280;44967;48.598;15.650;2023-07-30T11:16:05;97837.63;;;25.74;51.87
59194;BME280;44967;48.598;15.650;2023-07-30T11:18:31;97845.75;;;25.92;51.63
59194;BME280;44967;48.598;15.650;2023-07-30T11:21:04;97837.97;;;25.89;50.25
59194;BME280;44967;48.598;15.650;2023-07-30T11:23:29;97829.28;;;25.85;48.60
59194;BME280;44967;48.598;15.650;2023-07-30T11:25:55;97837.81;;;25.90;47.12
59194;BME280;44967;48.598;15.650;2023-07-30T11:28:50;97832.66;;;26.14;47.41
59194;BME280;44967;48.598;15.650;2023-07-30T11:31:18;97824.44;;;26.24;48.60
59194;BME280;44967;48.598;15.650;2023-07-30T16:18:31;97780.56;;;26.03;53.37
59194;BME280;44967;48.598;15.650;2023-07-30T16:21:03;97776.22;;;25.92;51.78
59194;BME280;44967;48.598;15.650;2023-07-30T16:23:29;97770.19;;;25.98;50.38
59194;BME280;44967;48.598;15.650;2023-07-30T16:25:55;97762.47;;;26.03;50.45
59194;BME280;44967;48.598;15.650;2023-07-30T16:28:21;97771.19;;;26.15;49.15
59194;BME280;44967;48.598;15.650;2023-07-30T16:30:49;97762.31;;;26.22;49.38
59194;BME280;44967;48.598;15.650;2023-07-30T16:33:16;97765.16;;;26.21;49.79
59194;BME280;44967;48.598;15.650;2023-07-30T16:35:43;97770.28;;;26.24;49.96
59194;BME280;44967;48.598;15.650;2023-07-30T16:38:09;97765.78;;;26.15;50.98
59194;BME280;44967;48.598;15.650;2023-07-30T16:40:36;97761.66;;;26.29;49.58
59194;BME280;44967;48.598;15.650;2023-07-30T16:43:02;97763.50;;;26.46;48.99
59194;BME280;44967;48.598;15.650;2023-07-30T16:45:28;97773.56;;;26.36;48.23
59194;BME280;44967;48.598;15.650;2023-07-30T16:47:54;97767.09;;;26.29;48.39
59194;BME280;44967;48.598;15.650;2023-07-30T16:50:21;97761.91;;;26.00;48.67
59194;BME280;44967;48.598;15.650;2023-07-30T16:52:48;97766.16;;;26.02;49.20
59194;BME280;44967;48.598;15.650;2023-07-30T16:55:14;97767.09;;;26.29;48.90
59194;BME280;44967;48.598;15.650;2023-07-30T16:57:42;97769.44;;;26.49;47.70
59194;BME280;44967;48.598;15.650;2023-07-30T17:00:08;97760.53;;;26.57;47.76
59194;BME280;44967;48.598;15.650;2023-07-30T17:02:34;97757.34;;;26.61;48.19
59194;BME280;44967;48.598;15.650;2023-07-30T17:04:59;97764.06;;;26.32;47.83
59194;BME280;44967;48.598;15.650;2023-07-30T17:07:25;97777.59;;;25.96;49.90
59194;BME280;44967;48.598;15.650;2023-07-30T17:09:51;97781.13;;;25.44;48.69
59194;BME280;44967;48.598;15.650;2023-07-30T17:12:17;97782.31;;;25.31;50.86
59194;BME280;44967;48.598;15.650;2023-07-30T17:14:43;97776.19;;;25.02;51.14
59194;BME280;44967;48.598;15.650;2023-07-30T17:17:09;97783.94;;;24.78;52.42
59194;BME280;44967;48.598;15.650;2023-07-30T17:19:36;97791.13;;;24.60;51.66
59194;BME280;44967;48.598;15.650;2023-07-30T17:22:03;97803.50;;;24.53;52.21
59194;BME280;44967;48.598;15.650;2023-07-30T17:24:32;97805.06;;;24.46;52.05
59194;BME280;44967;48.598;15.650;2023-07-30T17:26:59;97801.81;;;24.42;53.57
59194;BME280;44967;48.598;15.650;2023-07-30T17:29:25;97815.34;;;24.32;54.20
59194;BME280;44967;48.598;15.650;2023-07-30T17:31:51;97818.75;;;24.25;53.66
59194;BME280;44967;48.598;15.650;2023-07-30T17:34:19;97831.84;;;24.29;54.17
59194;BME280;44967;48.598;15.650;2023-07-30T17:36:47;97833.81;;;24.18;53.15
59194;BME280;44967;48.598;15.650;2023-07-30T17:39:13;97840.63;;;24.12;53.65
59194;BME280;44967;48.598;15.650;2023-07-30T17:41:39;97847.47;;;24.16;52.88
59194;BME280;44967;48.598;15.650;2023-07-30T17:44:05;97847.00;;;24.11;51.48